createdAt,value
2023-03-13T00:02:05.630Z,4.75
2023-03-13T00:05:10.230Z,4.88
2023-03-13T00:08:15.528Z,4.81
2023-03-13T00:11:19.145Z,4.73
2023-03-13T00:14:22.771Z,4.89
2023-03-13T00:17:26.402Z,4.80
2023-03-13T00:20:30.899Z,4.85
2023-03-13T00:23:38.640Z,4.77
2023-03-13T00:26:42.350Z,4.91
2023-03-13T00:29:45.954Z,4.95
2023-03-13T00:32:49.709Z,4.89
2023-03-13T00:35:53.375Z,4.85
2023-03-13T00:39:00.444Z,5.13
2023-03-13T00:42:04.851Z,5.13
2023-03-13T00:45:09.658Z,5.10
2023-03-13T00:48:13.555Z,4.97
2023-03-13T00:51:19.657Z,5.05
2023-03-13T00:54:24.814Z,4.96
2023-03-13T00:57:28.605Z,4.91
2023-03-13T01:00:32.278Z,5.01
2023-03-13T01:03:36.851Z,5.22
2023-03-13T01:06:43.427Z,5.04
2023-03-13T01:09:48.513Z,5.19
2023-03-13T01:12:52.197Z,5.20
2023-03-13T01:15:56.028Z,5.28
2023-03-13T01:19:03.328Z,5.31
2023-03-13T01:22:11.213Z,5.26
2023-03-13T01:25:17.827Z,5.22
2023-03-13T01:28:21.439Z,5.19
2023-03-13T01:31:28.222Z,5.42
2023-03-13T01:34:31.959Z,5.32
2023-03-13T01:37:35.640Z,5.44
2023-03-13T01:40:47.106Z,5.38
2023-03-13T01:43:50.863Z,5.36
2023-03-13T01:46:54.677Z,5.20
2023-03-13T01:49:58.329Z,5.18
2023-03-13T01:53:02.097Z,5.15
2023-03-13T01:56:13.436Z,5.24
2023-03-13T01:59:22.383Z,5.18
2023-03-13T02:02:26.900Z,5.19
2023-03-13T02:05:32.692Z,5.15
2023-03-13T02:08:42.071Z,5.17
2023-03-13T02:11:53.631Z,5.28
2023-03-13T02:14:59.677Z,5.32
2023-03-13T02:18:03.272Z,5.26
2023-03-13T02:21:22.340Z,5.32
2023-03-13T02:24:36.938Z,5.31
2023-03-13T02:27:44.430Z,5.40
2023-03-13T02:30:52.420Z,5.41
2023-03-13T02:33:59.130Z,5.37
2023-03-13T02:37:06.257Z,5.46
2023-03-13T02:40:14.687Z,5.42
2023-03-13T02:43:28.940Z,5.41
2023-03-13T02:46:33.177Z,5.43
2023-03-13T02:49:37.757Z,5.33
2023-03-13T02:52:46.542Z,5.37
2023-03-13T02:55:50.508Z,5.29
2023-03-13T02:58:55.480Z,5.40
2023-03-13T03:01:59.382Z,5.47
2023-03-13T03:05:03.004Z,5.37
2023-03-13T03:08:06.756Z,5.42
2023-03-13T03:11:10.894Z,5.37
2023-03-13T03:14:16.650Z,5.46
2023-03-13T03:17:20.451Z,5.52
2023-03-13T03:20:24.017Z,5.45
2023-03-13T03:23:27.642Z,5.45
2023-03-13T03:26:31.812Z,5.39
2023-03-13T03:29:36.785Z,5.38
2023-03-13T03:32:40.398Z,5.46
2023-03-13T03:35:44.054Z,5.63
2023-03-13T03:38:48.122Z,5.55
2023-03-13T03:41:51.849Z,5.64
2023-03-13T03:44:56.871Z,5.52
2023-03-13T03:48:00.694Z,5.51
2023-03-13T03:51:04.962Z,5.61
2023-03-13T03:54:08.600Z,5.53
2023-03-13T03:57:12.342Z,5.60
2023-03-13T04:00:19.660Z,5.58
2023-03-13T04:03:23.610Z,5.72
2023-03-13T04:06:27.324Z,5.77
2023-03-13T04:09:32.181Z,5.74
2023-03-13T04:12:36.172Z,5.67
2023-03-13T04:15:42.346Z,5.61
2023-03-13T04:18:45.979Z,5.63
2023-03-13T04:21:49.593Z,5.75
2023-03-13T04:24:53.357Z,5.83
2023-03-13T04:27:57.021Z,5.85
2023-03-13T04:31:02.083Z,5.79
2023-03-13T04:34:05.715Z,5.91
2023-03-13T04:37:09.340Z,5.83
2023-03-13T04:40:14.579Z,6.01
2023-03-13T04:43:18.159Z,5.87
2023-03-13T04:46:23.187Z,5.95
2023-03-13T04:49:27.032Z,5.98
2023-03-13T04:52:30.732Z,5.99
2023-03-13T04:55:34.265Z,6.04
2023-03-13T04:58:37.947Z,6.00
2023-03-13T05:01:44.353Z,6.07
2023-03-13T05:04:48.082Z,6.22
2023-03-13T05:07:51.713Z,6.18
2023-03-13T05:10:55.348Z,6.20
2023-03-13T05:13:58.983Z,6.25
2023-03-13T05:17:03.987Z,6.41
2023-03-13T05:20:11.303Z,6.32
2023-03-13T05:23:15.205Z,6.42
2023-03-13T05:26:19.073Z,6.32
2023-03-13T05:29:22.947Z,6.52
2023-03-13T05:32:28.162Z,6.42
2023-03-13T05:35:31.848Z,6.42
2023-03-13T05:38:35.644Z,6.48
2023-03-13T05:41:39.388Z,6.59
2023-03-13T05:44:43.047Z,6.59
2023-03-13T05:47:48.070Z,6.67
2023-03-13T05:50:51.734Z,6.72
2023-03-13T05:53:55.388Z,6.82
2023-03-13T05:56:59.066Z,6.85
2023-03-13T06:00:02.913Z,6.93
2023-03-13T06:03:07.948Z,7.01
2023-03-13T06:06:11.581Z,6.93
2023-03-13T06:09:15.286Z,7.02
2023-03-13T06:12:18.914Z,7.11
2023-03-13T06:15:22.916Z,7.15
2023-03-13T06:18:28.398Z,7.23
2023-03-13T06:21:32.173Z,7.27
2023-03-13T06:24:36.084Z,7.22
2023-03-13T06:27:39.746Z,7.47
2023-03-13T06:30:43.519Z,7.34
2023-03-13T06:33:49.739Z,7.49
2023-03-13T06:36:54.317Z,7.46
2023-03-13T06:39:57.987Z,7.48
2023-03-13T06:43:01.651Z,7.51
2023-03-13T06:46:06.816Z,7.68
2023-03-13T06:49:12.109Z,7.81
2023-03-13T06:52:15.684Z,7.73
2023-03-13T06:55:19.430Z,7.79
2023-03-13T06:58:32.105Z,7.81
2023-03-13T07:01:36.559Z,8.00
2023-03-13T07:04:42.251Z,7.98
2023-03-13T07:07:47.382Z,7.98
2023-03-13T07:10:52.382Z,8.09
2023-03-13T07:14:10.080Z,8.18
2023-03-13T07:17:19.199Z,8.25
2023-03-13T07:20:24.351Z,8.35
2023-03-13T07:23:30.229Z,8.41
2023-03-13T07:26:34.146Z,8.56
2023-03-13T07:29:38.111Z,8.62
2023-03-13T07:32:41.869Z,8.50
2023-03-13T07:35:51.784Z,8.73
2023-03-13T07:38:55.634Z,8.67
2023-03-13T07:41:59.493Z,8.84
2023-03-13T07:45:03.225Z,9.00
2023-03-13T07:48:08.067Z,8.93
2023-03-13T07:51:17.071Z,8.98
2023-03-13T07:54:20.845Z,9.18
2023-03-13T07:57:24.595Z,9.26
2023-03-13T08:00:28.526Z,9.35
2023-03-13T08:03:32.263Z,9.48
2023-03-13T08:06:37.450Z,9.54
2023-03-13T08:09:41.570Z,9.64
2023-03-13T08:12:45.178Z,9.73
2023-03-13T08:15:48.817Z,9.86
2023-03-13T08:18:56.504Z,9.96
2023-03-13T08:22:01.613Z,9.86
2023-03-13T08:25:05.400Z,9.92
2023-03-13T08:28:09.102Z,9.85
2023-03-13T08:31:16.141Z,9.92
2023-03-13T08:34:20.883Z,9.91
2023-03-13T08:37:25.906Z,9.92
2023-03-13T08:40:29.580Z,9.90
2023-03-13T08:43:33.106Z,9.89
2023-03-13T08:46:38.417Z,9.99
2023-03-13T08:49:42.231Z,10.03
2023-03-13T08:52:47.789Z,10.03
2023-03-13T08:55:54.702Z,10.03
2023-03-13T08:59:01.016Z,10.02
2023-03-13T09:02:04.638Z,10.17
2023-03-13T09:05:09.895Z,10.17
2023-03-13T09:08:15.691Z,10.15
2023-03-13T09:11:22.595Z,10.33
2023-03-13T09:14:26.256Z,10.35
2023-03-13T09:17:29.987Z,10.39
2023-03-13T09:20:33.594Z,10.56
2023-03-13T09:23:39.131Z,10.64
2023-03-13T09:26:55.099Z,10.68
2023-03-13T09:30:03.959Z,10.71
2023-03-13T09:33:07.959Z,10.59
2023-03-13T09:36:12.977Z,10.51
2023-03-13T09:39:18.015Z,10.44
2023-03-13T09:42:32.701Z,10.48
2023-03-13T09:45:43.054Z,10.53
2023-03-13T09:48:52.322Z,10.54
2023-03-13T09:52:06.929Z,10.72
2023-03-13T09:55:21.653Z,10.85
2023-03-13T09:58:29.922Z,11.03
2023-03-13T10:01:37.049Z,11.27
2023-03-13T10:04:50.351Z,11.60
2023-03-13T10:08:03.343Z,11.71
2023-03-13T10:11:18.136Z,11.80
2023-03-13T10:14:31.009Z,12.15
2023-03-13T10:17:38.314Z,12.40
2023-03-13T10:20:45.002Z,12.49
2023-03-13T10:23:55.521Z,12.46
2023-03-13T10:27:00.746Z,12.25
2023-03-13T10:30:04.532Z,12.21
2023-03-13T10:33:25.401Z,12.25
2023-03-13T10:36:43.223Z,12.31
2023-03-13T10:39:46.922Z,12.27
2023-03-13T10:42:55.101Z,12.22
2023-03-13T10:46:01.044Z,12.22
2023-03-13T10:49:14.453Z,12.17
2023-03-13T10:52:34.011Z,12.08
2023-03-13T10:55:45.349Z,12.21
2023-03-13T10:58:53.449Z,12.40
2023-03-13T11:02:02.579Z,12.46
2023-03-13T11:05:39.102Z,12.57
2023-03-13T11:08:43.973Z,12.58
2023-03-13T11:11:51.185Z,12.61
2023-03-13T11:15:00.795Z,12.58
2023-03-13T11:18:14.619Z,12.56
2023-03-13T11:21:31.126Z,12.66
2023-03-13T11:24:45.647Z,12.69
2023-03-13T11:28:06.013Z,12.81
2023-03-13T11:31:16.469Z,13.12
2023-03-13T11:34:29.821Z,13.21
2023-03-13T11:37:39.709Z,13.26
2023-03-13T11:41:00.110Z,13.58
2023-03-13T11:44:24.313Z,13.68
2023-03-13T11:47:45.767Z,13.59
2023-03-13T11:50:56.510Z,13.60
2023-03-13T11:54:32.079Z,13.61
2023-03-13T11:57:49.201Z,13.63
2023-03-13T12:01:01.692Z,13.64
2023-03-13T12:04:18.832Z,13.52
2023-03-13T12:07:29.678Z,13.52
2023-03-13T12:10:40.562Z,13.72
2023-03-13T12:13:53.554Z,13.93
2023-03-13T12:17:02.522Z,14.04
2023-03-13T12:20:20.658Z,13.97
2023-03-13T12:23:42.157Z,14.03
2023-03-13T12:26:51.296Z,14.02
2023-03-13T12:30:01.472Z,14.14
2023-03-13T12:33:22.813Z,14.15
2023-03-13T12:36:37.202Z,14.14
2023-03-13T12:39:50.278Z,14.10
2023-03-13T12:43:05.264Z,14.15
2023-03-13T12:46:36.167Z,14.27
2023-03-13T12:50:24.665Z,14.33
2023-03-13T12:54:07.430Z,14.34
2023-03-13T12:57:53.838Z,14.35
2023-03-13T13:01:04.178Z,14.44
2023-03-13T13:04:13.976Z,14.49
2023-03-13T13:07:26.884Z,14.54
2023-03-13T13:10:32.253Z,14.65
2023-03-13T13:13:41.482Z,14.55
2023-03-13T13:16:48.400Z,14.76
2023-03-13T13:19:52.418Z,14.75
2023-03-13T13:22:56.125Z,14.92
2023-03-13T13:26:51.487Z,14.75
2023-03-13T13:29:57.744Z,14.93
2023-03-13T13:33:41.932Z,14.75
2023-03-13T13:36:45.886Z,14.90
2023-03-13T13:39:52.686Z,14.89
2023-03-13T13:43:00.053Z,14.72
2023-03-13T13:46:18.272Z,14.74
2023-03-13T13:49:23.869Z,14.68
2023-03-13T13:52:39.768Z,14.84
2023-03-13T13:55:46.025Z,15.04
2023-03-13T13:58:51.749Z,14.99
2023-03-13T14:02:24.203Z,15.02
2023-03-13T14:05:33.182Z,15.09
2023-03-13T14:08:40.184Z,15.28
2023-03-13T14:11:43.767Z,15.42
2023-03-13T14:14:48.842Z,15.24
2023-03-13T14:17:55.909Z,15.27
2023-03-13T14:21:01.984Z,15.52
2023-03-13T14:24:14.997Z,15.81
2023-03-13T14:27:22.106Z,15.55
2023-03-13T14:30:27.322Z,15.35
2023-03-13T14:33:31.143Z,15.22
2023-03-13T14:36:49.177Z,15.05
2023-03-13T14:39:52.982Z,15.13
2023-03-13T14:42:59.642Z,15.05
2023-03-13T14:46:17.699Z,15.02
2023-03-13T14:49:25.802Z,15.17
2023-03-13T14:52:32.862Z,15.15
2023-03-13T14:55:40.650Z,15.27
2023-03-13T14:58:44.206Z,15.44
2023-03-13T15:02:18.323Z,15.30
2023-03-13T15:05:34.763Z,15.48
2023-03-13T15:08:41.297Z,15.45
2023-03-13T15:11:55.728Z,15.46
2023-03-13T15:15:00.022Z,15.52
2023-03-13T15:18:19.950Z,15.49
2023-03-13T15:21:30.351Z,15.52
2023-03-13T15:24:34.159Z,15.35
2023-03-13T15:27:38.229Z,15.25
2023-03-13T15:30:42.364Z,15.14
2023-03-13T15:33:47.591Z,15.24
2023-03-13T15:36:51.430Z,15.16
2023-03-13T15:39:56.683Z,15.18
2023-03-13T15:43:00.583Z,15.03
2023-03-13T15:46:05.777Z,14.93
2023-03-13T15:49:13.053Z,14.96
2023-03-13T15:52:22.871Z,14.97
2023-03-13T15:55:28.872Z,15.00
2023-03-13T15:58:32.551Z,14.85
2023-03-13T16:01:36.248Z,14.74
2023-03-13T16:04:41.321Z,14.71
2023-03-13T16:07:45.234Z,14.70
2023-03-13T16:10:49.690Z,14.64
2023-03-13T16:13:53.406Z,14.62
2023-03-13T16:16:57.183Z,14.66
2023-03-13T16:20:02.380Z,14.60
2023-03-13T16:23:06.046Z,14.61
2023-03-13T16:26:17.542Z,14.59
2023-03-13T16:29:21.353Z,14.53
2023-03-13T16:32:25.559Z,14.38
2023-03-13T16:35:31.155Z,14.31
2023-03-13T16:38:34.857Z,14.39
2023-03-13T16:41:39.053Z,14.45
2023-03-13T16:44:42.989Z,14.03
2023-03-13T16:47:47.680Z,13.96
2023-03-13T16:50:52.662Z,14.10
2023-03-13T16:54:00.519Z,14.12
2023-03-13T16:57:04.530Z,13.94
2023-03-13T17:00:17.998Z,13.85
2023-03-13T17:03:21.841Z,13.73
2023-03-13T17:06:29.922Z,13.84
2023-03-13T17:09:33.673Z,13.90
2023-03-13T17:12:37.321Z,13.78
2023-03-13T17:15:41.105Z,13.58
2023-03-13T17:18:47.623Z,13.54
2023-03-13T17:21:52.747Z,13.30
2023-03-13T17:24:56.500Z,13.24
2023-03-13T17:28:00.418Z,13.07
2023-03-13T17:31:04.242Z,13.01
2023-03-13T17:34:09.307Z,12.90
2023-03-13T17:37:20.999Z,12.65
2023-03-13T17:40:27.870Z,12.67
2023-03-13T17:43:31.447Z,12.63
2023-03-13T17:46:41.539Z,12.58
2023-03-13T17:49:45.660Z,12.49
2023-03-13T17:52:50.863Z,12.46
2023-03-13T17:55:54.430Z,12.25
2023-03-13T17:59:01.077Z,12.15
2023-03-13T18:02:04.889Z,12.19
2023-03-13T18:05:09.506Z,12.26
2023-03-13T18:08:14.507Z,12.00
2023-03-13T18:11:18.979Z,12.11
2023-03-13T18:14:23.120Z,12.03
2023-03-13T18:17:27.018Z,11.90
2023-03-13T18:20:33.505Z,11.89
2023-03-13T18:23:38.554Z,11.93
2023-03-13T18:26:43.654Z,11.81
2023-03-13T18:29:49.996Z,11.62
2023-03-13T18:32:54.352Z,11.63
2023-03-13T18:35:59.311Z,11.66
2023-03-13T18:39:06.701Z,11.79
2023-03-13T18:42:11.936Z,11.90
2023-03-13T18:45:17.742Z,12.05
2023-03-13T18:48:21.690Z,12.00
2023-03-13T18:51:27.369Z,12.30
2023-03-13T18:54:32.577Z,12.12
2023-03-13T18:57:36.258Z,12.21
2023-03-13T19:00:40.468Z,12.14
2023-03-13T19:03:45.292Z,12.11
2023-03-13T19:06:49.551Z,11.89
2023-03-13T19:09:55.616Z,11.91
2023-03-13T19:12:59.777Z,12.06
2023-03-13T19:16:03.459Z,11.80
2023-03-13T19:19:14.040Z,11.66
2023-03-13T19:22:17.636Z,11.57
2023-03-13T19:25:22.693Z,11.52
2023-03-13T19:28:26.312Z,11.49
2023-03-13T19:31:30.108Z,11.45
2023-03-13T19:34:35.346Z,11.27
2023-03-13T19:37:39.242Z,11.13
2023-03-13T19:40:44.334Z,11.02
2023-03-13T19:43:48.376Z,11.01
2023-03-13T19:46:54.591Z,11.09
2023-03-13T19:49:59.051Z,11.05
2023-03-13T19:53:02.845Z,10.91
2023-03-13T19:56:23.114Z,10.98
2023-03-13T19:59:27.982Z,10.84
2023-03-13T20:02:31.798Z,10.81
2023-03-13T20:05:35.497Z,10.67
2023-03-13T20:08:39.120Z,10.44
2023-03-13T20:11:45.156Z,10.34
2023-03-13T20:14:48.927Z,10.24
2023-03-13T20:17:52.736Z,10.12
2023-03-13T20:20:56.364Z,10.15
2023-03-13T20:24:00.903Z,10.02
2023-03-13T20:27:06.253Z,9.84
2023-03-13T20:30:11.800Z,9.72
2023-03-13T20:33:15.707Z,9.67
2023-03-13T20:36:21.924Z,9.58
2023-03-13T20:39:25.683Z,9.70
2023-03-13T20:42:30.694Z,9.61
2023-03-13T20:45:34.416Z,9.58
2023-03-13T20:48:39.947Z,9.57
2023-03-13T20:51:43.869Z,9.52
2023-03-13T20:54:47.615Z,9.50
2023-03-13T20:57:52.694Z,9.46
2023-03-13T21:01:00.454Z,9.56
2023-03-13T21:04:04.221Z,9.49
2023-03-13T21:07:07.808Z,9.56
2023-03-13T21:10:13.215Z,9.36
2023-03-13T21:13:18.397Z,9.25
2023-03-13T21:16:22.077Z,9.19
2023-03-13T21:19:25.745Z,9.19
2023-03-13T21:22:30.443Z,9.18
2023-03-13T21:25:34.322Z,9.20
2023-03-13T21:28:39.916Z,9.35
2023-03-13T21:31:43.964Z,9.41
2023-03-13T21:34:48.086Z,9.38
2023-03-13T21:37:51.855Z,9.47
2023-03-13T21:40:55.514Z,9.42
2023-03-13T21:44:00.509Z,9.40
2023-03-13T21:47:04.212Z,9.43
2023-03-13T21:50:11.147Z,9.43
2023-03-13T21:53:14.828Z,9.35
2023-03-13T21:56:18.515Z,9.24
2023-03-13T21:59:25.307Z,9.27
2023-03-13T22:02:29.122Z,9.57
2023-03-13T22:05:32.793Z,9.49
2023-03-13T22:08:36.448Z,9.42
2023-03-13T22:11:40.333Z,9.46
2023-03-13T22:14:45.693Z,9.38
2023-03-13T22:17:49.495Z,9.36
2023-03-13T22:20:53.323Z,9.32
2023-03-13T22:23:57.010Z,9.29
2023-03-13T22:27:00.695Z,9.24
2023-03-13T22:30:07.498Z,9.16
2023-03-13T22:33:11.139Z,9.05
2023-03-13T22:36:14.866Z,9.00
2023-03-13T22:39:18.732Z,9.03
2023-03-13T22:42:22.938Z,9.21
2023-03-13T22:45:28.111Z,9.22
2023-03-13T22:48:32.809Z,9.12
2023-03-13T22:51:36.498Z,9.09
2023-03-13T22:54:40.202Z,9.04
2023-03-13T22:57:43.859Z,9.05
2023-03-13T23:00:49.446Z,8.97
2023-03-13T23:03:53.222Z,8.92
2023-03-13T23:06:56.852Z,8.83
2023-03-13T23:10:00.886Z,8.82
2023-03-13T23:13:04.705Z,8.78
2023-03-13T23:16:12.942Z,8.82
2023-03-13T23:19:16.527Z,8.80
2023-03-13T23:22:21.878Z,8.73
2023-03-13T23:25:25.790Z,8.64
2023-03-13T23:28:29.884Z,8.67
2023-03-13T23:31:35.003Z,8.62
2023-03-13T23:34:38.613Z,8.60
2023-03-13T23:37:42.199Z,8.52
2023-03-13T23:40:46.045Z,8.54
2023-03-13T23:43:49.689Z,8.46
2023-03-13T23:46:54.730Z,8.46
2023-03-13T23:49:58.373Z,8.55
2023-03-13T23:53:02.112Z,8.53
2023-03-13T23:56:06.791Z,8.60
2023-03-13T23:59:10.408Z,8.63
